Dallas, Texas
Traffic Map
Current Weather Conditions
Dallas, Texas
Few Clouds
Few Clouds
38°
Feels Like: 33°
Wind Chill: 33° Ceiling: Unl
Heat Index: 38° Visibility: 10mi
Dew Point: 30° Wind: 6mph
Humidity: 73% Direction: 340° (NNW)
Pressure: 30.31in Gusts: 0mph
Raw Report DataKDAL 151353Z 34005KT 10SM FEW150 FEW240 03/M01 A3031 RMK AO2 SLP262 T00331011
Traffic Incident Summary
Active as of:
Severity:
Category:
InformationThere was an issue retrieving the traffic information for this location. Please try a different location or try again shortly.
Advertisements